Time;durP1;ratioP1;P1;durP2;ratioP2;P2;SDS_P1;SDS_P2;PMS_P1;PMS_P2;Temp;Humidity;BMP_temperature;BMP_pressure;BME280_temperature;BME280_humidity;BME280_pressure;Samples;Min_cycle;Max_cycle;Signal;HPM_P1;HPM_P2
2022/05/13 00:01:08;;;;;;;;;;;12.70;99.90;;;;;;5054953;28;20361;-77
2022/05/13 00:03:34;;;;;;;;;;;12.70;99.90;;;;;;5054157;28;20050;-79
2022/05/13 00:05:59;;;;;;;;;;;12.70;99.90;;;;;;5054727;28;20345;-77
2022/05/13 00:08:25;;;;;;;;;;;12.60;99.90;;;;;;5054526;28;19909;-77
2022/05/13 00:10:50;;;;;;;;;;;12.50;99.90;;;;;;5054691;28;19912;-79
2022/05/13 00:13:16;;;;;;;;;;;12.50;99.90;;;;;;5036137;28;20325;-78
2022/05/13 00:15:42;;;;;;;;;;;12.50;99.90;;;;;;5054426;28;19912;-79
2022/05/13 00:18:08;;;;;;;;;;;12.40;99.90;;;;;;5054432;28;19909;-77
2022/05/13 00:20:34;;;;;;;;;;;12.30;99.90;;;;;;5054088;28;20385;-80
2022/05/13 00:23:00;;;;;;;;;;;12.20;99.90;;;;;;5053835;28;19909;-78
2022/05/13 00:25:27;;;;;;;;;;;12.10;99.90;;;;;;5054339;28;19958;-77
2022/05/13 00:27:53;;;;;;;;;;;12.00;99.90;;;;;;5036313;28;19909;-79
2022/05/13 00:30:19;;;;;;;;;;;11.90;99.90;;;;;;5054195;28;19908;-78
2022/05/13 00:32:45;;;;;;;;;;;11.90;99.90;;;;;;5053788;28;19908;-78
2022/05/13 00:35:10;;;;;;;;;;;11.90;99.90;;;;;;5050730;28;19917;-77
2022/05/13 00:37:36;;;;;;;;;;;11.90;99.90;;;;;;5034194;28;19909;-79
2022/05/13 00:40:03;;;;;;;;;;;11.90;99.90;;;;;;5034103;28;19936;-78
2022/05/13 00:42:29;;;;;;;;;;;12.10;99.90;;;;;;5033686;28;20385;-78
2022/05/13 00:44:54;;;;;;;;;;;12.10;99.90;;;;;;5033482;28;19999;-78
2022/05/13 00:47:21;;;;;;;;;;;12.20;99.90;;;;;;5034049;28;20289;-79
2022/05/13 00:49:47;;;;;;;;;;;12.10;99.90;;;;;;5033982;28;19909;-78
2022/05/13 00:52:13;;;;;;;;;;;12.10;99.90;;;;;;5015226;28;19916;-77
2022/05/13 00:54:41;;;;;;;;;;;11.80;99.90;;;;;;5033858;28;19996;-78
2022/05/13 00:57:07;;;;;;;;;;;11.80;99.90;;;;;;5033775;28;19917;-78
2022/05/13 00:59:34;;;;;;;;;;;11.90;99.90;;;;;;5033945;28;20427;-78
2022/05/13 01:02:00;;;;;;;;;;;11.90;99.90;;;;;;5033477;28;20377;-77
2022/05/13 01:04:26;;;;;;;;;;;11.80;99.90;;;;;;5033788;28;19999;-78
2022/05/13 01:06:53;;;;;;;;;;;11.60;99.90;;;;;;5033562;28;19910;-77
2022/05/13 01:09:19;;;;;;;;;;;11.40;99.90;;;;;;5033634;28;19924;-79
2022/05/13 01:11:47;;;;;;;;;;;11.30;99.90;;;;;;5031920;28;19964;-78
2022/05/13 01:14:18;;;;;;;;;;;11.30;99.90;;;;;;5013816;28;19932;-78
2022/05/13 01:19:28;;;;;;;;;;;11.40;99.90;;;;;;5013640;28;20447;-77
2022/05/13 01:21:54;;;;;;;;;;;11.60;99.90;;;;;;5015788;28;19913;-79
2022/05/13 01:24:20;;;;;;;;;;;11.60;99.90;;;;;;5033524;28;19955;-77
2022/05/13 01:26:46;;;;;;;;;;;11.60;99.90;;;;;;5032110;28;19916;-79
2022/05/13 01:29:11;;;;;;;;;;;11.40;99.90;;;;;;5033455;28;19909;-79
2022/05/13 01:31:38;;;;;;;;;;;11.50;99.90;;;;;;5033218;28;19913;-77
2022/05/13 01:34:06;;;;;;;;;;;11.50;99.90;;;;;;5013677;28;19929;-79
2022/05/13 01:36:31;;;;;;;;;;;11.30;99.90;;;;;;5013429;28;19921;-77
2022/05/13 01:38:58;;;;;;;;;;;11.00;99.90;;;;;;4995952;28;19920;-78
2022/05/13 01:41:23;;;;;;;;;;;11.20;99.90;;;;;;5013536;28;19917;-78
2022/05/13 01:43:50;;;;;;;;;;;11.20;99.90;;;;;;5030172;28;19909;-78
2022/05/13 01:46:16;;;;;;;;;;;11.10;99.90;;;;;;5033230;28;19909;-78
2022/05/13 01:48:42;;;;;;;;;;;11.10;99.90;;;;;;5033291;28;19909;-77
2022/05/13 01:51:08;;;;;;;;;;;11.20;99.90;;;;;;5033120;28;19913;-77
2022/05/13 01:53:34;;;;;;;;;;;11.20;99.90;;;;;;5026527;28;19971;-77
2022/05/13 01:56:00;;;;;;;;;;;11.10;99.90;;;;;;5052807;28;19952;-78
2022/05/13 01:58:25;;;;;;;;;;;10.90;99.90;;;;;;5055884;28;19955;-79
2022/05/13 02:00:52;;;;;;;;;;;10.80;99.90;;;;;;5057035;28;19912;-77
2022/05/13 02:06:03;;;;;;;;;;;10.90;99.90;;;;;;5037114;28;19931;-78
2022/05/13 02:08:28;;;;;;;;;;;10.90;99.90;;;;;;5036710;28;20269;-78
2022/05/13 02:10:54;;;;;;;;;;;10.80;99.90;;;;;;5036854;28;19916;-77
2022/05/13 02:13:19;;;;;;;;;;;10.60;99.90;;;;;;5036570;28;19952;-77
2022/05/13 02:15:45;;;;;;;;;;;10.60;99.90;;;;;;5036802;28;19913;-79
2022/05/13 02:18:11;;;;;;;;;;;10.30;99.90;;;;;;5019025;28;20012;-77
2022/05/13 02:20:37;;;;;;;;;;;10.10;99.90;;;;;;5036434;28;19909;-79
2022/05/13 02:23:03;;;;;;;;;;;9.80;99.90;;;;;;5036345;28;19909;-77
2022/05/13 02:25:31;;;;;;;;;;;9.80;99.90;;;;;;5036556;28;19916;-79
2022/05/13 02:27:58;;;;;;;;;;;10.10;99.90;;;;;;5018835;28;19920;-78
2022/05/13 02:30:23;;;;;;;;;;;10.30;99.90;;;;;;5036693;28;20382;-77
2022/05/13 02:32:49;;;;;;;;;;;10.50;99.90;;;;;;5036051;28;20004;-78
2022/05/13 02:35:15;;;;;;;;;;;10.70;99.90;;;;;;5015140;28;19940;-77
2022/05/13 02:37:40;;;;;;;;;;;10.90;99.90;;;;;;5016723;28;19940;-77
2022/05/13 02:40:06;;;;;;;;;;;10.70;99.90;;;;;;5016679;28;19945;-78
2022/05/13 02:42:32;;;;;;;;;;;10.50;99.90;;;;;;5016173;28;20377;-79
2022/05/13 02:44:57;;;;;;;;;;;10.60;99.90;;;;;;5016626;28;19928;-77
2022/05/13 02:47:23;;;;;;;;;;;10.60;99.90;;;;;;5016384;28;20325;-78
2022/05/13 02:50:17;;;;;;;;;;;10.70;99.90;;;;;;5016601;28;19992;-77
2022/05/13 02:52:34;;;;;;;;;;;10.60;99.90;;;;;;5015941;28;19955;-78
2022/05/13 02:54:59;;;;;;;;;;;10.70;99.90;;;;;;5016126;28;20332;-79
2022/05/13 02:57:25;;;;;;;;;;;10.40;99.90;;;;;;5035985;28;19913;-79
2022/05/13 02:59:51;;;;;;;;;;;10.40;99.90;;;;;;5036078;28;19916;-79
2022/05/13 03:02:16;;;;;;;;;;;10.20;99.90;;;;;;5037889;28;19917;-78
2022/05/13 03:04:42;;;;;;;;;;;10.10;99.90;;;;;;5055862;28;20371;-78
2022/05/13 03:07:07;;;;;;;;;;;10.20;99.90;;;;;;5055787;28;19908;-78
2022/05/13 03:09:34;;;;;;;;;;;10.30;99.90;;;;;;5055266;28;19916;-79
2022/05/13 03:12:00;;;;;;;;;;;10.30;99.90;;;;;;5055725;28;19996;-78
2022/05/13 03:14:26;;;;;;;;;;;10.30;99.90;;;;;;5055447;28;19995;-77
2022/05/13 03:16:51;;;;;;;;;;;10.10;99.90;;;;;;5055552;28;20365;-78
2022/05/13 03:19:17;;;;;;;;;;;10.10;99.90;;;;;;5055448;28;19927;-77
2022/05/13 03:21:42;;;;;;;;;;;10.10;99.90;;;;;;5055603;28;19916;-79
2022/05/13 03:24:08;;;;;;;;;;;10.10;99.90;;;;;;5055083;28;19991;-79
2022/05/13 03:26:33;;;;;;;;;;;10.10;99.90;;;;;;5054165;28;19909;-78
2022/05/13 03:28:59;;;;;;;;;;;9.90;99.90;;;;;;5055555;28;19952;-78
2022/05/13 03:31:25;;;;;;;;;;;10.10;99.90;;;;;;5055389;28;20388;-77
2022/05/13 03:33:50;;;;;;;;;;;10.10;99.90;;;;;;5054946;28;19955;-78
2022/05/13 03:36:16;;;;;;;;;;;9.90;99.90;;;;;;5057047;28;19970;-77
2022/05/13 03:38:42;;;;;;;;;;;9.80;99.90;;;;;;5057317;28;19912;-80
2022/05/13 03:41:08;;;;;;;;;;;9.70;99.90;;;;;;5075327;28;19912;-78
2022/05/13 03:43:33;;;;;;;;;;;9.70;99.90;;;;;;5056721;28;19943;-79
2022/05/13 03:45:59;;;;;;;;;;;9.60;99.90;;;;;;5075148;28;20348;-77
2022/05/13 03:48:24;;;;;;;;;;;9.80;99.90;;;;;;5075132;28;19908;-77
2022/05/13 03:50:50;;;;;;;;;;;9.70;99.90;;;;;;5074958;28;19999;-77
2022/05/13 03:53:15;;;;;;;;;;;9.60;99.90;;;;;;5074749;28;19908;-78
2022/05/13 03:55:41;;;;;;;;;;;9.40;99.90;;;;;;5036832;28;19924;-77
2022/05/13 03:58:07;;;;;;;;;;;9.50;99.90;;;;;;5054975;28;19913;-80
2022/05/13 04:00:33;;;;;;;;;;;9.70;99.90;;;;;;5036913;28;19962;-77
2022/05/13 04:02:59;;;;;;;;;;;9.50;99.90;;;;;;5036495;28;20335;-77
2022/05/13 04:10:53;;;;;;;;;;;9.20;99.90;;;;;;5054375;28;19985;-78
2022/05/13 04:16:06;;;;;;;;;;;9.50;99.90;;;;;;5054244;28;19928;-79
2022/05/13 04:18:40;;;;;;;;;;;9.60;99.90;;;;;;5054852;28;19954;-79
2022/05/13 04:21:10;;;;;;;;;;;9.70;99.90;;;;;;5053822;28;19912;-77
2022/05/13 04:23:37;;;;;;;;;;;9.50;99.90;;;;;;5036184;28;20393;-77
2022/05/13 04:26:03;;;;;;;;;;;9.30;99.90;;;;;;5054339;28;20375;-76
2022/05/13 04:28:29;;;;;;;;;;;9.40;99.90;;;;;;5036426;28;20355;-78
2022/05/13 04:30:55;;;;;;;;;;;9.50;99.90;;;;;;5054093;28;19944;-79
2022/05/13 04:33:20;;;;;;;;;;;9.30;99.90;;;;;;5053859;28;19947;-77
2022/05/13 04:35:46;;;;;;;;;;;9.30;99.90;;;;;;5035979;28;19979;-77
2022/05/13 04:38:12;;;;;;;;;;;9.40;99.90;;;;;;5054093;28;20001;-79
2022/05/13 04:40:38;;;;;;;;;;;9.30;99.90;;;;;;5054107;28;19920;-78
2022/05/13 04:43:06;;;;;;;;;;;9.50;99.90;;;;;;5053638;28;20413;-77
2022/05/13 04:45:31;;;;;;;;;;;9.50;99.90;;;;;;5054016;28;19954;-77
2022/05/13 04:48:17;;;;;;;;;;;9.40;99.90;;;;;;5053903;28;19913;-79
2022/05/13 04:50:43;;;;;;;;;;;9.40;99.90;;;;;;5053913;28;19999;-79
2022/05/13 04:53:10;;;;;;;;;;;9.30;99.90;;;;;;5053521;28;19908;-80
2022/05/13 04:55:36;;;;;;;;;;;9.30;99.90;;;;;;5035081;28;19916;-79
2022/05/13 04:58:02;;;;;;;;;;;9.50;99.90;;;;;;5053662;28;20426;-77
2022/05/13 05:00:28;;;;;;;;;;;9.50;99.90;;;;;;5053753;28;19912;-78
2022/05/13 05:02:53;;;;;;;;;;;9.60;99.90;;;;;;5054142;28;19908;-79
2022/05/13 05:05:19;;;;;;;;;;;9.60;99.90;;;;;;5054881;28;20066;-78
2022/05/13 05:07:45;;;;;;;;;;;9.50;99.90;;;;;;5054774;28;19944;-78
2022/05/13 05:10:10;;;;;;;;;;;9.60;99.90;;;;;;5035783;28;19967;-79
2022/05/13 05:12:39;;;;;;;;;;;9.60;99.90;;;;;;5053176;28;19944;-79
2022/05/13 05:15:07;;;;;;;;;;;9.60;99.90;;;;;;5053540;28;20273;-79
2022/05/13 05:17:32;;;;;;;;;;;9.60;99.90;;;;;;5035519;28;19966;-78
2022/05/13 05:19:58;;;;;;;;;;;9.60;99.90;;;;;;5053207;28;19912;-77
2022/05/13 05:22:23;;;;;;;;;;;9.60;99.90;;;;;;5053625;28;19940;-77
2022/05/13 05:24:49;;;;;;;;;;;9.80;99.90;;;;;;5052925;28;19915;-79
2022/05/13 05:27:15;;;;;;;;;;;9.80;99.90;;;;;;5053391;28;19909;-77
2022/05/13 05:29:43;;;;;;;;;;;9.90;99.90;;;;;;5053354;28;19940;-79
2022/05/13 05:32:09;;;;;;;;;;;9.80;99.90;;;;;;5035040;28;19931;-77
2022/05/13 05:34:34;;;;;;;;;;;9.90;99.90;;;;;;5034913;28;19908;-77
2022/05/13 05:37:00;;;;;;;;;;;10.10;99.90;;;;;;5052876;28;20308;-79
2022/05/13 05:39:26;;;;;;;;;;;10.00;99.90;;;;;;5053204;28;19909;-78
2022/05/13 05:41:51;;;;;;;;;;;10.10;99.90;;;;;;5053280;28;20365;-78
2022/05/13 05:44:17;;;;;;;;;;;10.40;99.90;;;;;;5052647;28;19913;-78
2022/05/13 05:46:43;;;;;;;;;;;10.50;99.90;;;;;;5053157;28;19916;-78
2022/05/13 05:49:10;;;;;;;;;;;10.60;99.90;;;;;;5052959;28;19909;-77
2022/05/13 05:51:36;;;;;;;;;;;10.70;99.90;;;;;;5053155;28;19909;-78
2022/05/13 05:59:30;;;;;;;;;;;10.90;99.90;;;;;;5052683;28;19994;-78
2022/05/13 06:01:55;;;;;;;;;;;11.10;99.90;;;;;;5052805;28;20376;-78
2022/05/13 06:04:40;;;;;;;;;;;11.20;99.90;;;;;;5051340;28;19909;-79
2022/05/13 06:07:07;;;;;;;;;;;11.40;99.90;;;;;;5053086;28;19963;-78
2022/05/13 06:09:32;;;;;;;;;;;11.50;99.90;;;;;;5052913;28;19909;-79
2022/05/13 06:11:58;;;;;;;;;;;11.60;99.90;;;;;;5052900;28;19909;-78
2022/05/13 06:14:25;;;;;;;;;;;11.80;99.90;;;;;;5051084;28;19908;-78
2022/05/13 06:16:51;;;;;;;;;;;11.80;99.90;;;;;;5052819;28;20413;-78
2022/05/13 06:19:17;;;;;;;;;;;11.80;99.90;;;;;;5052840;28;19944;-80
2022/05/13 06:21:42;;;;;;;;;;;12.00;99.90;;;;;;5052821;28;19909;-79
2022/05/13 06:24:08;;;;;;;;;;;12.20;99.90;;;;;;5041288;28;19917;-76
2022/05/13 06:26:34;;;;;;;;;;;12.30;99.90;;;;;;5033014;28;19916;-78
2022/05/13 06:29:00;;;;;;;;;;;12.40;99.90;;;;;;5032846;28;19909;-79
2022/05/13 06:31:25;;;;;;;;;;;12.60;99.90;;;;;;5032597;28;19975;-77
2022/05/13 06:33:51;;;;;;;;;;;12.50;99.90;;;;;;5047768;28;19913;-77
2022/05/13 06:36:17;;;;;;;;;;;12.40;99.90;;;;;;5056764;28;19924;-79
2022/05/13 06:38:42;;;;;;;;;;;12.50;99.90;;;;;;5072695;28;19908;-78
2022/05/13 06:41:08;;;;;;;;;;;12.50;99.90;;;;;;5072716;28;19908;-77
2022/05/13 06:43:34;;;;;;;;;;;12.50;99.90;;;;;;5073489;28;19909;-78
2022/05/13 06:46:00;;;;;;;;;;;12.80;99.90;;;;;;5076293;28;19909;-78
2022/05/13 06:48:25;;;;;;;;;;;12.80;99.90;;;;;;5076243;28;19908;-78
2022/05/13 06:50:51;;;;;;;;;;;12.70;99.90;;;;;;5076249;28;19916;-78
2022/05/13 06:53:18;;;;;;;;;;;12.70;99.90;;;;;;5076008;28;20485;-78
2022/05/13 06:55:44;;;;;;;;;;;12.90;99.90;;;;;;5056263;28;19916;-79
2022/05/13 06:58:11;;;;;;;;;;;13.20;99.90;;;;;;5076126;28;19909;-78
2022/05/13 07:00:37;;;;;;;;;;;13.40;99.90;;;;;;5058057;28;19908;-79
2022/05/13 07:03:06;;;;;;;;;;;13.50;99.90;;;;;;5075914;28;19954;-77
2022/05/13 07:05:32;;;;;;;;;;;13.70;99.90;;;;;;5058145;28;19909;-79
2022/05/13 07:07:58;;;;;;;;;;;13.70;99.90;;;;;;5076070;28;19958;-79
2022/05/13 07:10:24;;;;;;;;;;;13.50;99.90;;;;;;5075913;28;19908;-78
2022/05/13 07:12:50;;;;;;;;;;;14.70;99.90;;;;;;5058023;28;19916;-77
2022/05/13 07:15:17;;;;;;;;;;;17.10;99.90;;;;;;5057477;28;20420;-78
2022/05/13 07:17:42;;;;;;;;;;;18.70;99.90;;;;;;5075948;28;20257;-79
2022/05/13 07:20:11;;;;;;;;;;;20.40;95.10;;;;;;5076201;28;19915;-79
2022/05/13 07:22:38;;;;;;;;;;;21.90;93.80;;;;;;5058839;28;20285;-79
2022/05/13 07:25:04;;;;;;;;;;;23.00;87.90;;;;;;5075876;28;19913;-78
2022/05/13 07:27:30;;;;;;;;;;;24.00;85.10;;;;;;5075849;28;19908;-78
2022/05/13 07:29:56;;;;;;;;;;;24.30;76.30;;;;;;5076487;28;19916;-77
2022/05/13 07:32:21;;;;;;;;;;;24.30;76.90;;;;;;5075686;28;19908;-79
2022/05/13 07:34:47;;;;;;;;;;;24.50;77.10;;;;;;5075602;28;19913;-78
2022/05/13 07:37:13;;;;;;;;;;;24.50;70.80;;;;;;5057572;28;20368;-78
2022/05/13 07:42:22;;;;;;;;;;;24.30;74.80;;;;;;5075775;28;20010;-78
2022/05/13 07:44:48;;;;;;;;;;;24.30;74.70;;;;;;5075531;28;19913;-77
2022/05/13 07:47:16;;;;;;;;;;;24.00;75.90;;;;;;5075644;28;19908;-78
2022/05/13 07:49:42;;;;;;;;;;;23.50;77.00;;;;;;5057917;28;19909;-78
2022/05/13 07:52:08;;;;;;;;;;;23.30;75.10;;;;;;5075673;28;19952;-78
2022/05/13 07:54:34;;;;;;;;;;;22.50;75.20;;;;;;5055343;28;19943;-79
2022/05/13 07:57:00;;;;;;;;;;;21.10;80.40;;;;;;5075399;28;20425;-77
2022/05/13 07:59:26;;;;;;;;;;;19.80;88.70;;;;;;5057115;28;20298;-78
2022/05/13 08:01:52;;;;;;;;;;;19.10;91.80;;;;;;5075253;28;19908;-79
2022/05/13 08:04:18;;;;;;;;;;;19.10;93.40;;;;;;5075040;28;20042;-78
2022/05/13 08:06:44;;;;;;;;;;;18.70;94.30;;;;;;5075200;28;20357;-78
2022/05/13 08:09:10;;;;;;;;;;;18.00;97.10;;;;;;5075005;28;19940;-77
2022/05/13 08:11:36;;;;;;;;;;;18.50;97.60;;;;;;5075320;28;20005;-79
2022/05/13 08:14:01;;;;;;;;;;;20.60;95.30;;;;;;5074785;28;19908;-78
2022/05/13 08:16:29;;;;;;;;;;;21.00;91.40;;;;;;5075285;28;19922;-78
2022/05/13 08:18:58;;;;;;;;;;;20.50;89.50;;;;;;5075179;28;19909;-77
2022/05/13 08:21:24;;;;;;;;;;;20.40;90.80;;;;;;5074984;28;19931;-78
2022/05/13 08:23:50;;;;;;;;;;;20.80;86.90;;;;;;5074810;28;20014;-78
2022/05/13 08:26:16;;;;;;;;;;;20.30;87.20;;;;;;5075208;28;19909;-78
2022/05/13 08:28:42;;;;;;;;;;;20.40;89.90;;;;;;5074700;28;19908;-77
2022/05/13 08:31:09;;;;;;;;;;;21.50;84.80;;;;;;5074684;28;19912;-79
2022/05/13 08:33:37;;;;;;;;;;;22.50;80.60;;;;;;5074295;28;20292;-78
2022/05/13 08:36:05;;;;;;;;;;;23.10;77.20;;;;;;5040087;28;19925;-76
2022/05/13 08:38:32;;;;;;;;;;;22.10;74.80;;;;;;5074734;28;19995;-77
2022/05/13 08:41:07;;;;;;;;;;;22.10;74.70;;;;;;5074407;28;20404;-77
2022/05/13 08:43:47;;;;;;;;;;;22.60;76.00;;;;;;5074255;28;20323;-76
2022/05/13 08:46:13;;;;;;;;;;;23.60;71.60;;;;;;5074579;28;19932;-77
2022/05/13 08:48:38;;;;;;;;;;;24.80;67.40;;;;;;5074458;28;20349;-78
2022/05/13 08:51:18;;;;;;;;;;;25.60;65.20;;;;;;5074475;28;20276;-69
2022/05/13 08:54:02;;;;;;;;;;;25.80;63.60;;;;;;5073835;28;19940;-77
2022/05/13 08:56:30;;;;;;;;;;;26.00;62.90;;;;;;5058811;28;19943;-77
2022/05/13 08:59:00;;;;;;;;;;;26.80;59.80;;;;;;5054327;28;20320;-75
2022/05/13 09:01:29;;;;;;;;;;;26.50;60.50;;;;;;5069625;28;19908;-78
2022/05/13 09:04:15;;;;;;;;;;;27.10;59.10;;;;;;5054051;28;19916;-76
2022/05/13 09:06:53;;;;;;;;;;;27.30;56.10;;;;;;5035329;28;19909;-77
2022/05/13 09:09:20;;;;;;;;;;;27.60;55.50;;;;;;5054542;28;19909;-77
2022/05/13 09:12:05;;;;;;;;;;;27.30;55.50;;;;;;5053890;28;19954;-76
2022/05/13 09:14:35;;;;;;;;;;;27.70;54.40;;;;;;5045115;28;19992;-78
2022/05/13 09:17:19;;;;;;;;;;;28.60;53.20;;;;;;5034178;28;19913;-77
2022/05/13 09:19:53;;;;;;;;;;;29.50;51.10;;;;;;5033824;28;20373;-77
2022/05/13 09:22:19;;;;;;;;;;;28.00;50.80;;;;;;5016420;28;19909;-78
2022/05/13 09:24:45;;;;;;;;;;;27.80;51.30;;;;;;5033595;28;19916;-77
2022/05/13 09:27:12;;;;;;;;;;;28.10;50.50;;;;;;5034015;28;19959;-75
2022/05/13 09:29:39;;;;;;;;;;;26.00;52.30;;;;;;5033811;28;19913;-75
2022/05/13 09:32:07;;;;;;;;;;;24.40;55.10;;;;;;5033717;28;19909;-76
2022/05/13 09:35:00;;;;;;;;;;;24.10;57.50;;;;;;5033748;28;19910;-78
2022/05/13 09:37:34;;;;;;;;;;;26.10;54.80;;;;;;5031263;28;19957;-75
2022/05/13 09:40:09;;;;;;;;;;;28.30;51.90;;;;;;5034056;28;19941;-77
2022/05/13 09:42:35;;;;;;;;;;;28.20;48.70;;;;;;5033676;28;20270;-75
2022/05/13 09:45:11;;;;;;;;;;;27.10;48.50;;;;;;5015563;28;19909;-76
2022/05/13 09:47:37;;;;;;;;;;;28.20;48.50;;;;;;5033763;28;19909;-76
2022/05/13 09:50:08;;;;;;;;;;;29.40;47.80;;;;;;5033799;28;20331;-77
2022/05/13 09:52:35;;;;;;;;;;;30.40;45.60;;;;;;5033675;28;19932;-76
2022/05/13 09:55:13;;;;;;;;;;;31.40;43.70;;;;;;5033363;28;19931;-77
2022/05/13 09:57:39;;;;;;;;;;;33.80;42.10;;;;;;5033116;28;19921;-79
2022/05/13 10:00:15;;;;;;;;;;;35.50;39.30;;;;;;5033741;28;19914;-76
2022/05/13 10:02:43;;;;;;;;;;;37.30;38.00;;;;;;5033681;28;19963;-76
2022/05/13 10:05:11;;;;;;;;;;;39.00;36.00;;;;;;5045986;28;19995;-77
2022/05/13 10:07:57;;;;;;;;;;;34.90;37.10;;;;;;5052974;28;19909;-77
2022/05/13 10:16:00;;;;;;;;;;;31.70;41.40;;;;;;5053073;28;20392;-76
2022/05/13 10:18:33;;;;;;;;;;;30.40;42.50;;;;;;5054237;28;19915;-76
2022/05/13 10:21:04;;;;;;;;;;;31.30;43.50;;;;;;5057106;28;20074;-78
2022/05/13 10:23:33;;;;;;;;;;;35.00;40.00;;;;;;5057013;28;19909;-77
2022/05/13 10:26:05;;;;;;;;;;;38.80;36.80;;;;;;5056932;28;19908;-78
2022/05/13 10:28:50;;;;;;;;;;;40.80;35.30;;;;;;5056920;28;19909;-77
2022/05/13 10:31:18;;;;;;;;;;;41.70;33.70;;;;;;5055085;28;19908;-78
2022/05/13 10:33:43;;;;;;;;;;;40.70;33.30;;;;;;5056824;28;19909;-76
2022/05/13 10:36:11;;;;;;;;;;;37.80;33.80;;;;;;5067502;28;19943;-77
2022/05/13 10:38:56;;;;;;;;;;;34.90;36.10;;;;;;5066054;28;19956;-76
2022/05/13 10:41:32;;;;;;;;;;;37.70;35.60;;;;;;5040648;28;20379;-77
2022/05/13 10:44:02;;;;;;;;;;;39.90;33.80;;;;;;5064113;28;19909;-76
2022/05/13 10:46:34;;;;;;;;;;;36.10;34.80;;;;;;5066108;28;19966;-75
2022/05/13 10:49:00;;;;;;;;;;;32.50;37.40;;;;;;5065061;28;19909;-76
2022/05/13 10:51:34;;;;;;;;;;;31.10;39.20;;;;;;5065953;28;19915;-76
2022/05/13 10:54:03;;;;;;;;;;;30.30;39.70;;;;;;5055323;28;19912;-76
2022/05/13 10:56:35;;;;;;;;;;;29.70;40.30;;;;;;5055899;28;19998;-76
2022/05/13 10:59:15;;;;;;;;;;;28.90;41.30;;;;;;5067933;28;19944;-76
2022/05/13 11:02:00;;;;;;;;;;;30.80;41.30;;;;;;5066667;28;20381;-77
2022/05/13 11:04:34;;;;;;;;;;;37.00;36.40;;;;;;5066902;28;19915;-77
2022/05/13 11:07:06;;;;;;;;;;;39.70;33.30;;;;;;5066712;28;19915;-76
2022/05/13 11:09:42;;;;;;;;;;;40.70;32.60;;;;;;5066201;28;19909;-78
2022/05/13 11:12:20;;;;;;;;;;;40.80;32.10;;;;;;5069447;28;19955;-77
2022/05/13 11:14:55;;;;;;;;;;;40.00;32.40;;;;;;5066543;28;20113;-75
2022/05/13 11:17:31;;;;;;;;;;;39.20;32.30;;;;;;5056073;28;19920;-75
2022/05/13 11:19:59;;;;;;;;;;;37.10;34.20;;;;;;5037849;28;20462;-74
2022/05/13 11:22:30;;;;;;;;;;;35.20;35.60;;;;;;5056108;28;19909;-74
2022/05/13 11:27:58;;;;;;;;;;;32.40;37.70;;;;;;5055598;28;19939;-77
2022/05/13 11:30:42;;;;;;;;;;;30.40;39.40;;;;;;5055720;28;19959;-74
2022/05/13 11:33:26;;;;;;;;;;;29.30;40.60;;;;;;5055792;28;19969;-75
2022/05/13 11:36:02;;;;;;;;;;;32.40;38.70;;;;;;5055347;28;19920;-75
2022/05/13 11:38:46;;;;;;;;;;;34.90;35.80;;;;;;5055776;28;19951;-78
2022/05/13 11:41:13;;;;;;;;;;;36.60;35.40;;;;;;5055691;28;19909;-78
2022/05/13 11:43:57;;;;;;;;;;;37.00;33.70;;;;;;5055464;28;19923;-76
2022/05/13 11:46:29;;;;;;;;;;;35.00;34.90;;;;;;5055849;28;20377;-75
2022/05/13 11:49:06;;;;;;;;;;;32.80;37.10;;;;;;5055545;28;19908;-75
2022/05/13 11:51:34;;;;;;;;;;;31.70;38.00;;;;;;5055354;28;19966;-75
2022/05/13 11:53:59;;;;;;;;;;;30.70;38.90;;;;;;5055277;28;20431;-76
2022/05/13 11:56:29;;;;;;;;;;;31.20;38.30;;;;;;5037336;28;19917;-74
2022/05/13 11:59:12;;;;;;;;;;;32.80;36.80;;;;;;5055257;28;20377;-77
2022/05/13 12:01:48;;;;;;;;;;;33.40;36.80;;;;;;5055194;28;20440;-75
2022/05/13 12:04:14;;;;;;;;;;;38.10;34.10;;;;;;5055755;28;19909;-75
2022/05/13 12:06:52;;;;;;;;;;;39.50;33.20;;;;;;5055261;28;20358;-76
2022/05/13 12:09:28;;;;;;;;;;;40.40;32.00;;;;;;5055201;28;19909;-76
2022/05/13 12:11:58;;;;;;;;;;;42.20;31.90;;;;;;5054872;28;19915;-76
2022/05/13 12:14:29;;;;;;;;;;;43.30;30.80;;;;;;5055119;28;20319;-77
2022/05/13 12:17:07;;;;;;;;;;;40.30;31.10;;;;;;5054902;28;20381;-77
2022/05/13 12:19:39;;;;;;;;;;;40.60;32.00;;;;;;5054818;28;19916;-76
2022/05/13 12:22:19;;;;;;;;;;;39.70;31.80;;;;;;5054992;28;20000;-77
2022/05/13 12:24:55;;;;;;;;;;;40.90;31.10;;;;;;5055003;28;19944;-78
2022/05/13 12:27:30;;;;;;;;;;;42.90;31.10;;;;;;5054592;28;19909;-76
2022/05/13 12:30:01;;;;;;;;;;;44.30;30.30;;;;;;5054815;28;19971;-75
2022/05/13 12:32:40;;;;;;;;;;;43.90;29.70;;;;;;5036586;28;20263;-78
2022/05/13 12:38:16;;;;;;;;;;;36.20;33.10;;;;;;5054317;28;19919;-76
2022/05/13 12:41:09;;;;;;;;;;;34.00;35.60;;;;;;5053644;28;19909;-74
2022/05/13 12:43:44;;;;;;;;;;;35.30;35.00;;;;;;5036847;28;19909;-76
2022/05/13 12:46:20;;;;;;;;;;;33.80;35.50;;;;;;5054359;28;19909;-75
2022/05/13 12:49:15;;;;;;;;;;;33.50;36.20;;;;;;5054367;28;20004;-75
2022/05/13 12:51:44;;;;;;;;;;;36.10;34.70;;;;;;5017276;28;19909;-78
2022/05/13 12:54:10;;;;;;;;;;;36.20;34.90;;;;;;5054321;28;19909;-77
2022/05/13 12:56:36;;;;;;;;;;;37.90;33.80;;;;;;5054106;28;19912;-75
2022/05/13 12:59:11;;;;;;;;;;;37.30;33.50;;;;;;5054100;28;19908;-77
2022/05/13 13:01:39;;;;;;;;;;;37.60;33.10;;;;;;5054593;28;19916;-76
2022/05/13 13:04:06;;;;;;;;;;;35.80;34.20;;;;;;5036032;28;19948;-78
2022/05/13 13:06:38;;;;;;;;;;;36.50;34.50;;;;;;5053908;28;19964;-76
2022/05/13 13:09:04;;;;;;;;;;;37.70;33.90;;;;;;5053930;28;19951;-76
2022/05/13 13:11:34;;;;;;;;;;;36.10;33.60;;;;;;5053831;28;19948;-76
2022/05/13 13:14:10;;;;;;;;;;;34.10;35.50;;;;;;5053858;28;19913;-76
2022/05/13 13:16:51;;;;;;;;;;;33.00;36.20;;;;;;5054029;28;19913;-76
2022/05/13 13:19:18;;;;;;;;;;;33.10;36.60;;;;;;5053803;28;19909;-76
2022/05/13 13:21:44;;;;;;;;;;;33.10;36.20;;;;;;5053800;28;19916;-76
2022/05/13 13:24:15;;;;;;;;;;;36.60;35.40;;;;;;5053700;28;19909;-78
2022/05/13 13:26:42;;;;;;;;;;;37.10;33.60;;;;;;5035564;28;19952;-78
2022/05/13 13:29:08;;;;;;;;;;;36.20;34.50;;;;;;5053634;28;20026;-76
2022/05/13 13:31:38;;;;;;;;;;;36.90;33.80;;;;;;5053697;28;20397;-77
2022/05/13 13:34:04;;;;;;;;;;;37.30;33.60;;;;;;5053588;28;19966;-75
2022/05/13 13:36:30;;;;;;;;;;;38.20;33.50;;;;;;5053511;28;20003;-77
2022/05/13 13:38:57;;;;;;;;;;;38.60;33.10;;;;;;5053519;28;19908;-76
2022/05/13 13:41:31;;;;;;;;;;;37.70;32.60;;;;;;5053483;28;19916;-76
2022/05/13 13:43:58;;;;;;;;;;;36.80;33.80;;;;;;5053745;28;19916;-77
2022/05/13 13:46:27;;;;;;;;;;;36.60;34.10;;;;;;5053421;28;20361;-77
2022/05/13 13:48:55;;;;;;;;;;;35.60;34.70;;;;;;5053467;28;19913;-76
2022/05/13 13:51:22;;;;;;;;;;;34.90;34.80;;;;;;5053588;28;20373;-78
2022/05/13 13:53:53;;;;;;;;;;;34.90;35.30;;;;;;5057023;28;19920;-75
2022/05/13 13:56:19;;;;;;;;;;;35.50;34.80;;;;;;5057702;28;19917;-76
2022/05/13 13:59:05;;;;;;;;;;;37.10;33.80;;;;;;5057764;28;19909;-76
2022/05/13 14:01:32;;;;;;;;;;;35.70;34.40;;;;;;5057358;28;19916;-75
2022/05/13 14:04:06;;;;;;;;;;;35.40;35.10;;;;;;5057362;28;20389;-77
2022/05/13 14:06:31;;;;;;;;;;;35.10;34.70;;;;;;5039482;28;19952;-74
2022/05/13 14:08:57;;;;;;;;;;;34.50;35.10;;;;;;5057286;28;19909;-76
2022/05/13 14:11:24;;;;;;;;;;;34.30;35.20;;;;;;5057171;28;19944;-75
2022/05/13 14:13:51;;;;;;;;;;;33.80;35.20;;;;;;5057164;28;20369;-75
2022/05/13 14:16:19;;;;;;;;;;;33.00;36.30;;;;;;5057034;28;19913;-75
2022/05/13 14:18:46;;;;;;;;;;;33.30;36.10;;;;;;5057257;28;19913;-76
2022/05/13 14:21:14;;;;;;;;;;;33.00;36.00;;;;;;5057090;28;20027;-74
2022/05/13 14:23:40;;;;;;;;;;;34.60;35.40;;;;;;5057007;28;19909;-75
2022/05/13 14:26:07;;;;;;;;;;;34.40;35.00;;;;;;5056927;28;19958;-76
2022/05/13 14:28:41;;;;;;;;;;;34.10;36.00;;;;;;5057191;28;19958;-76
2022/05/13 14:31:09;;;;;;;;;;;34.80;35.00;;;;;;5057102;28;19915;-76
2022/05/13 14:33:37;;;;;;;;;;;34.90;35.00;;;;;;5056811;28;19939;-77
2022/05/13 14:36:04;;;;;;;;;;;35.10;35.90;;;;;;5056516;28;19928;-75
2022/05/13 14:41:30;;;;;;;;;;;34.70;34.80;;;;;;5056921;28;19920;-76
2022/05/13 14:43:56;;;;;;;;;;;35.30;34.50;;;;;;5056709;28;20405;-76
2022/05/13 14:46:25;;;;;;;;;;;34.80;35.00;;;;;;5056658;28;19916;-75
2022/05/13 14:48:50;;;;;;;;;;;34.80;36.30;;;;;;5056883;28;19909;-77
2022/05/13 14:51:20;;;;;;;;;;;35.30;35.00;;;;;;5056838;28;20361;-75
2022/05/13 14:53:52;;;;;;;;;;;33.60;35.10;;;;;;5038599;28;20430;-76
2022/05/13 14:56:18;;;;;;;;;;;32.70;36.20;;;;;;5056390;28;19913;-76
2022/05/13 14:58:47;;;;;;;;;;;33.20;36.50;;;;;;5056370;28;19909;-75
2022/05/13 15:01:21;;;;;;;;;;;34.40;35.90;;;;;;5056316;28;19919;-75
2022/05/13 15:03:52;;;;;;;;;;;35.30;35.70;;;;;;5055598;28;19916;-76